createdAt,value
2018-05-01T00:02:34.242Z,94416.27
2018-05-01T00:17:35.122Z,94409.22
2018-05-01T00:32:34.188Z,94414.41
2018-05-01T00:47:34.010Z,94409.66
2018-05-01T01:02:34.325Z,94404.67
2018-05-01T01:17:34.363Z,94412.31
2018-05-01T01:32:34.657Z,94412.39
2018-05-01T01:47:33.958Z,94413.06
2018-05-01T02:02:33.874Z,94409.83
2018-05-01T02:17:34.437Z,94420.39
2018-05-01T02:32:34.191Z,94409.28
2018-05-01T02:47:36.202Z,94409.51
2018-05-01T03:02:34.081Z,94417.06
2018-05-01T03:17:33.574Z,94423.24
2018-05-01T03:32:33.463Z,94444.64
2018-05-01T03:47:32.405Z,94432.99
2018-05-01T04:02:33.386Z,94443.11
2018-05-01T04:17:33.802Z,94456.22
2018-05-01T04:32:33.482Z,94469.13
2018-05-01T04:47:34.003Z,94467.87
2018-05-01T05:02:36.550Z,94464.64
2018-05-01T05:17:34.398Z,94488.44
2018-05-01T05:32:33.827Z,94487.12
2018-05-01T05:47:34.349Z,94482.47
2018-05-01T06:02:38.149Z,94476.17
2018-05-01T06:17:34.678Z,94472.59
2018-05-01T06:32:34.745Z,94468.97
2018-05-01T06:47:34.701Z,94465.11
2018-05-01T07:02:35.962Z,94462.42
2018-05-01T07:17:36.018Z,94450.10
2018-05-01T07:32:33.989Z,94440.78
2018-05-01T07:47:34.499Z,94432.66
2018-05-01T08:02:34.304Z,94435.63
2018-05-01T08:17:33.751Z,94434.33
2018-05-01T08:32:37.406Z,94440.05
2018-05-01T08:47:34.213Z,94430.34
2018-05-01T09:02:34.573Z,94430.95
2018-05-01T09:17:36.236Z,94424.77
2018-05-01T09:32:34.542Z,94415.63
2018-05-01T09:47:34.608Z,94416.11
2018-05-01T10:02:34.505Z,94403.35
2018-05-01T10:17:36.053Z,94406.11
2018-05-01T10:32:35.551Z,94387.61
2018-05-01T10:47:35.398Z,94386.61
2018-05-01T11:02:34.814Z,94397.22
2018-05-01T11:17:34.390Z,94395.55
2018-05-01T11:32:34.487Z,94388.87
2018-05-01T11:47:33.995Z,94372.89
2018-05-01T12:02:33.974Z,94350.52
2018-05-01T12:17:34.370Z,94352.66
2018-05-01T12:32:34.840Z,94329.44
2018-05-01T12:47:34.440Z,94309.75
2018-05-01T13:02:37.373Z,94296.94
2018-05-01T13:17:35.422Z,94276.66
2018-05-01T13:32:35.421Z,94249.33
2018-05-01T13:47:35.353Z,94239.03
2018-05-01T14:02:34.826Z,94227.73
2018-05-01T14:17:41.512Z,94216.16
2018-05-01T14:32:34.681Z,94205.13
2018-05-01T14:47:53.347Z,94215.03
2018-05-01T15:17:38.994Z,94226.38
2018-05-01T15:32:38.342Z,94219.17
2018-05-01T16:02:41.150Z,94224.05
2018-05-01T16:47:35.313Z,94217.07
2018-05-01T17:02:34.797Z,94224.30
2018-05-01T17:17:41.028Z,94245.63
2018-05-01T17:47:35.503Z,94294.47
2018-05-01T18:47:49.299Z,94344.67
2018-05-01T19:02:39.207Z,94361.03
2018-05-01T19:17:37.599Z,94359.66
2018-05-01T19:32:37.012Z,94351.28
2018-05-01T19:47:36.486Z,94354.28
2018-05-01T20:02:40.822Z,94347.39
2018-05-01T20:17:39.710Z,94342.53
2018-05-01T20:32:34.972Z,94351.53
2018-05-01T20:47:38.650Z,94338.73
2018-05-01T21:02:38.187Z,94334.28
2018-05-01T21:17:35.084Z,94337.37
2018-05-01T21:32:37.857Z,94351.55
2018-05-01T21:47:37.770Z,94356.84
2018-05-01T22:02:37.480Z,94359.95
2018-05-01T22:17:35.199Z,94360.75
2018-05-01T22:32:35.109Z,94358.19
2018-05-01T22:47:35.091Z,94352.27
2018-05-01T23:02:35.782Z,94333.58
2018-05-01T23:17:34.467Z,94333.25
2018-05-01T23:32:35.438Z,94330.66
2018-05-01T23:47:34.554Z,94325.59
